sensor_id;sensor_type;location;lat;lon;timestamp;pressure;altitude;pressure_sealevel;temperature;humidity
56992;BME280;42885;49.754;18.636;2023-12-07T00:02:22;98177.75;;;1.50;91.77
56992;BME280;42885;49.754;18.636;2023-12-07T00:04:52;98183.88;;;1.45;91.21
56992;BME280;42885;49.754;18.636;2023-12-07T00:07:24;98185.54;;;1.47;91.29
56992;BME280;42885;49.754;18.636;2023-12-07T00:09:55;98185.36;;;1.55;90.67
56992;BME280;42885;49.754;18.636;2023-12-07T00:12:26;98186.00;;;1.47;91.25
56992;BME280;42885;49.754;18.636;2023-12-07T00:14:57;98178.34;;;1.60;91.57
56992;BME280;42885;49.754;18.636;2023-12-07T00:17:28;98182.09;;;1.65;91.54
56992;BME280;42885;49.754;18.636;2023-12-07T00:19:59;98187.42;;;1.59;91.28
56992;BME280;42885;49.754;18.636;2023-12-07T00:22:30;98185.17;;;1.45;91.22
56992;BME280;42885;49.754;18.636;2023-12-07T00:25:01;98190.33;;;1.45;91.54
56992;BME280;42885;49.754;18.636;2023-12-07T00:27:32;98192.27;;;1.53;91.97
56992;BME280;42885;49.754;18.636;2023-12-07T00:30:03;98192.84;;;1.30;90.73
56992;BME280;42885;49.754;18.636;2023-12-07T00:32:35;98197.83;;;1.37;92.29
56992;BME280;42885;49.754;18.636;2023-12-07T00:35:06;98197.93;;;1.15;92.07
56992;BME280;42885;49.754;18.636;2023-12-07T00:37:38;98204.02;;;1.30;93.28
56992;BME280;42885;49.754;18.636;2023-12-07T00:40:09;98192.70;;;1.36;93.30
56992;BME280;42885;49.754;18.636;2023-12-07T00:42:40;98197.31;;;1.41;92.61
56992;BME280;42885;49.754;18.636;2023-12-07T00:45:12;98203.39;;;1.39;92.05
56992;BME280;42885;49.754;18.636;2023-12-07T00:47:43;98199.30;;;1.48;92.33
56992;BME280;42885;49.754;18.636;2023-12-07T00:50:14;98194.37;;;1.39;91.48
56992;BME280;42885;49.754;18.636;2023-12-07T00:52:45;98200.78;;;1.22;92.00
56992;BME280;42885;49.754;18.636;2023-12-07T00:55:17;98201.91;;;1.10;93.52
56992;BME280;42885;49.754;18.636;2023-12-07T00:57:47;98205.23;;;0.95;92.85
56992;BME280;42885;49.754;18.636;2023-12-07T01:00:18;98207.48;;;1.09;92.91
56992;BME280;42885;49.754;18.636;2023-12-07T01:02:50;98209.39;;;1.01;92.65
56992;BME280;42885;49.754;18.636;2023-12-07T01:05:21;98204.75;;;1.17;93.80
56992;BME280;42885;49.754;18.636;2023-12-07T01:07:52;98207.78;;;0.97;93.52
56992;BME280;42885;49.754;18.636;2023-12-07T01:10:23;98206.69;;;1.07;94.32
56992;BME280;42885;49.754;18.636;2023-12-07T01:12:54;98205.95;;;1.20;94.82
56992;BME280;42885;49.754;18.636;2023-12-07T01:15:25;98210.02;;;1.13;93.53
56992;BME280;42885;49.754;18.636;2023-12-07T01:17:56;98207.03;;;0.92;93.88
56992;BME280;42885;49.754;18.636;2023-12-07T01:20:27;98208.00;;;1.26;94.95
56992;BME280;42885;49.754;18.636;2023-12-07T01:22:58;98211.98;;;1.21;94.10
56992;BME280;42885;49.754;18.636;2023-12-07T01:25:29;98207.81;;;0.95;93.98
56992;BME280;42885;49.754;18.636;2023-12-07T01:28:01;98221.95;;;0.97;94.82
56992;BME280;42885;49.754;18.636;2023-12-07T01:30:32;98221.67;;;1.29;95.53
56992;BME280;42885;49.754;18.636;2023-12-07T01:33:03;98212.78;;;1.03;95.20
56992;BME280;42885;49.754;18.636;2023-12-07T01:35:34;98217.80;;;1.09;95.28
56992;BME280;42885;49.754;18.636;2023-12-07T01:38:05;98218.66;;;1.28;94.30
56992;BME280;42885;49.754;18.636;2023-12-07T01:40:36;98217.88;;;1.06;93.05
56992;BME280;42885;49.754;18.636;2023-12-07T01:43:07;98217.77;;;1.11;93.37
56992;BME280;42885;49.754;18.636;2023-12-07T01:45:38;98218.61;;;1.12;94.02
56992;BME280;42885;49.754;18.636;2023-12-07T01:48:09;98214.20;;;1.17;94.35
56992;BME280;42885;49.754;18.636;2023-12-07T01:50:40;98214.44;;;0.88;93.99
56992;BME280;42885;49.754;18.636;2023-12-07T01:53:11;98218.34;;;0.85;94.70
56992;BME280;42885;49.754;18.636;2023-12-07T01:55:43;98212.59;;;0.73;95.55
56992;BME280;42885;49.754;18.636;2023-12-07T01:58:15;98214.98;;;0.81;95.82
56992;BME280;42885;49.754;18.636;2023-12-07T02:00:47;98214.08;;;0.84;95.29
56992;BME280;42885;49.754;18.636;2023-12-07T02:03:19;98218.14;;;0.94;94.66
56992;BME280;42885;49.754;18.636;2023-12-07T02:05:51;98221.30;;;0.87;93.97
56992;BME280;42885;49.754;18.636;2023-12-07T02:08:22;98228.93;;;0.92;95.25
56992;BME280;42885;49.754;18.636;2023-12-07T02:10:53;98226.33;;;0.93;95.33
56992;BME280;42885;49.754;18.636;2023-12-07T02:13:24;98221.70;;;0.88;94.78
56992;BME280;42885;49.754;18.636;2023-12-07T02:15:56;98224.74;;;0.88;95.76
56992;BME280;42885;49.754;18.636;2023-12-07T02:18:40;98230.09;;;0.98;95.11
56992;BME280;42885;49.754;18.636;2023-12-07T02:23:46;98227.31;;;0.88;96.46
56992;BME280;42885;49.754;18.636;2023-12-07T02:26:48;98230.02;;;0.81;95.93
56992;BME280;42885;49.754;18.636;2023-12-07T02:29:19;98232.56;;;1.03;94.89
56992;BME280;42885;49.754;18.636;2023-12-07T02:31:51;98231.58;;;1.08;94.52
56992;BME280;42885;49.754;18.636;2023-12-07T02:34:22;98236.36;;;0.86;93.93
56992;BME280;42885;49.754;18.636;2023-12-07T02:36:54;98236.17;;;1.33;93.92
56992;BME280;42885;49.754;18.636;2023-12-07T02:39:26;98236.81;;;1.23;92.08
56992;BME280;42885;49.754;18.636;2023-12-07T02:41:58;98236.03;;;1.20;92.30
56992;BME280;42885;49.754;18.636;2023-12-07T02:44:30;98238.43;;;1.29;92.91
56992;BME280;42885;49.754;18.636;2023-12-07T02:47:00;98238.93;;;1.06;92.20
56992;BME280;42885;49.754;18.636;2023-12-07T02:49:32;98243.28;;;1.04;92.72
56992;BME280;42885;49.754;18.636;2023-12-07T02:52:03;98246.83;;;1.18;92.80
56992;BME280;42885;49.754;18.636;2023-12-07T02:54:34;98247.37;;;1.32;92.28
56992;BME280;42885;49.754;18.636;2023-12-07T02:57:05;98247.58;;;1.23;92.46
56992;BME280;42885;49.754;18.636;2023-12-07T02:59:36;98248.27;;;1.49;92.23
56992;BME280;42885;49.754;18.636;2023-12-07T03:02:07;98252.55;;;1.31;91.48
56992;BME280;42885;49.754;18.636;2023-12-07T03:04:38;98254.47;;;1.03;91.80
56992;BME280;42885;49.754;18.636;2023-12-07T03:07:09;98253.01;;;0.91;92.46
56992;BME280;42885;49.754;18.636;2023-12-07T03:09:40;98262.42;;;1.12;93.80
56992;BME280;42885;49.754;18.636;2023-12-07T03:12:11;98256.05;;;1.28;94.37
56992;BME280;42885;49.754;18.636;2023-12-07T03:14:42;98257.55;;;0.99;93.39
56992;BME280;42885;49.754;18.636;2023-12-07T03:17:13;98254.63;;;0.95;93.69
56992;BME280;42885;49.754;18.636;2023-12-07T03:19:44;98257.38;;;1.07;94.77
56992;BME280;42885;49.754;18.636;2023-12-07T03:22:15;98253.67;;;1.01;94.79
56992;BME280;42885;49.754;18.636;2023-12-07T03:24:48;98254.78;;;0.89;94.45
56992;BME280;42885;49.754;18.636;2023-12-07T03:27:20;98255.89;;;0.96;94.96
56992;BME280;42885;49.754;18.636;2023-12-07T03:29:51;98258.26;;;1.06;95.17
56992;BME280;42885;49.754;18.636;2023-12-07T03:32:22;98257.00;;;0.85;94.13
56992;BME280;42885;49.754;18.636;2023-12-07T03:34:53;98263.70;;;0.93;94.31
56992;BME280;42885;49.754;18.636;2023-12-07T03:37:24;98264.17;;;1.11;95.42
56992;BME280;42885;49.754;18.636;2023-12-07T03:39:55;98268.95;;;1.08;93.71
56992;BME280;42885;49.754;18.636;2023-12-07T03:42:26;98274.48;;;0.91;93.42
56992;BME280;42885;49.754;18.636;2023-12-07T03:44:57;98282.84;;;1.01;92.82
56992;BME280;42885;49.754;18.636;2023-12-07T03:47:28;98283.48;;;1.13;93.59
56992;BME280;42885;49.754;18.636;2023-12-07T03:50:06;98277.47;;;1.12;93.34
56992;BME280;42885;49.754;18.636;2023-12-07T03:52:32;98287.52;;;1.03;92.69
56992;BME280;42885;49.754;18.636;2023-12-07T03:55:03;98282.52;;;0.97;93.16
56992;BME280;42885;49.754;18.636;2023-12-07T03:57:35;98284.54;;;1.02;93.53
56992;BME280;42885;49.754;18.636;2023-12-07T04:00:07;98290.45;;;1.07;94.41
56992;BME280;42885;49.754;18.636;2023-12-07T04:02:38;98291.39;;;1.03;94.57
56992;BME280;42885;49.754;18.636;2023-12-07T04:05:09;98294.64;;;0.92;94.43
56992;BME280;42885;49.754;18.636;2023-12-07T04:07:42;98292.34;;;0.79;94.65
56992;BME280;42885;49.754;18.636;2023-12-07T04:10:13;98298.78;;;0.79;94.49
56992;BME280;42885;49.754;18.636;2023-12-07T04:12:44;98295.84;;;0.75;93.79
56992;BME280;42885;49.754;18.636;2023-12-07T04:15:15;98297.20;;;0.72;95.60
56992;BME280;42885;49.754;18.636;2023-12-07T04:17:46;98302.66;;;0.99;94.46
56992;BME280;42885;49.754;18.636;2023-12-07T04:20:17;98308.30;;;0.97;94.06
56992;BME280;42885;49.754;18.636;2023-12-07T04:22:48;98311.56;;;1.05;93.37
56992;BME280;42885;49.754;18.636;2023-12-07T04:25:19;98308.78;;;1.15;92.50
56992;BME280;42885;49.754;18.636;2023-12-07T04:27:52;98311.60;;;1.02;91.84
56992;BME280;42885;49.754;18.636;2023-12-07T04:30:24;98308.98;;;1.05;92.49
56992;BME280;42885;49.754;18.636;2023-12-07T04:32:55;98308.22;;;1.00;90.87
56992;BME280;42885;49.754;18.636;2023-12-07T04:35:25;98315.92;;;1.02;90.49
56992;BME280;42885;49.754;18.636;2023-12-07T04:37:58;98316.94;;;1.14;92.10
56992;BME280;42885;49.754;18.636;2023-12-07T04:40:29;98326.52;;;1.29;89.51
56992;BME280;42885;49.754;18.636;2023-12-07T04:43:00;98318.73;;;1.10;89.50
56992;BME280;42885;49.754;18.636;2023-12-07T04:45:31;98326.95;;;1.28;91.07
56992;BME280;42885;49.754;18.636;2023-12-07T04:48:02;98324.57;;;1.19;91.37
56992;BME280;42885;49.754;18.636;2023-12-07T04:50:34;98332.19;;;1.25;89.90
56992;BME280;42885;49.754;18.636;2023-12-07T04:53:05;98336.41;;;1.29;89.84
56992;BME280;42885;49.754;18.636;2023-12-07T04:55:36;98339.72;;;1.34;90.46
56992;BME280;42885;49.754;18.636;2023-12-07T04:58:09;98342.17;;;1.41;90.15
56992;BME280;42885;49.754;18.636;2023-12-07T05:00:40;98344.23;;;1.44;89.75
56992;BME280;42885;49.754;18.636;2023-12-07T05:03:11;98355.06;;;1.41;89.81
56992;BME280;42885;49.754;18.636;2023-12-07T05:05:42;98351.14;;;1.22;89.72
56992;BME280;42885;49.754;18.636;2023-12-07T05:08:13;98356.39;;;1.18;90.18
56992;BME280;42885;49.754;18.636;2023-12-07T05:10:44;98359.18;;;1.28;90.84
56992;BME280;42885;49.754;18.636;2023-12-07T05:13:15;98358.22;;;1.34;90.57
56992;BME280;42885;49.754;18.636;2023-12-07T05:15:46;98369.34;;;1.16;90.33
56992;BME280;42885;49.754;18.636;2023-12-07T05:18:17;98360.45;;;1.08;90.98
56992;BME280;42885;49.754;18.636;2023-12-07T05:20:50;98366.38;;;1.14;91.56
56992;BME280;42885;49.754;18.636;2023-12-07T05:23:21;98364.99;;;1.18;91.21
56992;BME280;42885;49.754;18.636;2023-12-07T05:25:52;98370.25;;;1.14;90.50
56992;BME280;42885;49.754;18.636;2023-12-07T05:28:24;98374.11;;;1.14;90.76
56992;BME280;42885;49.754;18.636;2023-12-07T05:30:55;98379.77;;;1.10;90.82
56992;BME280;42885;49.754;18.636;2023-12-07T05:33:27;98378.02;;;1.10;91.43
56992;BME280;42885;49.754;18.636;2023-12-07T05:35:58;98387.42;;;1.13;91.66
56992;BME280;42885;49.754;18.636;2023-12-07T05:38:30;98382.58;;;1.19;90.61
56992;BME280;42885;49.754;18.636;2023-12-07T05:41:01;98379.17;;;1.18;90.56
56992;BME280;42885;49.754;18.636;2023-12-07T05:43:33;98384.16;;;1.26;90.41
56992;BME280;42885;49.754;18.636;2023-12-07T05:46:04;98390.02;;;1.12;89.59
56992;BME280;42885;49.754;18.636;2023-12-07T05:48:35;98379.38;;;1.07;90.60
56992;BME280;42885;49.754;18.636;2023-12-07T05:51:11;98387.00;;;1.14;90.99
56992;BME280;42885;49.754;18.636;2023-12-07T05:53:39;98390.48;;;1.11;90.92
56992;BME280;42885;49.754;18.636;2023-12-07T05:56:10;98392.66;;;1.10;91.13
56992;BME280;42885;49.754;18.636;2023-12-07T05:58:41;98396.42;;;1.15;91.18
56992;BME280;42885;49.754;18.636;2023-12-07T06:01:16;98399.05;;;1.12;91.11
56992;BME280;42885;49.754;18.636;2023-12-07T06:03:45;98396.81;;;1.17;91.84
56992;BME280;42885;49.754;18.636;2023-12-07T06:06:17;98400.91;;;1.26;91.41
56992;BME280;42885;49.754;18.636;2023-12-07T06:08:49;98407.55;;;1.17;91.02
56992;BME280;42885;49.754;18.636;2023-12-07T06:11:20;98409.31;;;1.15;91.14
56992;BME280;42885;49.754;18.636;2023-12-07T06:13:51;98412.57;;;1.25;90.62
56992;BME280;42885;49.754;18.636;2023-12-07T06:16:22;98418.73;;;1.39;90.68
56992;BME280;42885;49.754;18.636;2023-12-07T06:18:53;98419.17;;;1.36;89.62
56992;BME280;42885;49.754;18.636;2023-12-07T06:21:24;98419.08;;;1.20;89.41
56992;BME280;42885;49.754;18.636;2023-12-07T06:23:57;98422.42;;;1.46;90.01
56992;BME280;42885;49.754;18.636;2023-12-07T06:26:29;98431.14;;;1.41;89.35
56992;BME280;42885;49.754;18.636;2023-12-07T06:29:00;98432.33;;;1.24;89.00
56992;BME280;42885;49.754;18.636;2023-12-07T06:31:31;98432.51;;;1.37;89.70
56992;BME280;42885;49.754;18.636;2023-12-07T06:34:03;98431.21;;;1.16;90.30
56992;BME280;42885;49.754;18.636;2023-12-07T06:36:34;98438.01;;;1.19;90.98
56992;BME280;42885;49.754;18.636;2023-12-07T06:39:05;98437.40;;;1.06;91.65
56992;BME280;42885;49.754;18.636;2023-12-07T06:41:36;98440.47;;;1.02;92.34
56992;BME280;42885;49.754;18.636;2023-12-07T06:44:07;98443.59;;;0.97;92.69
56992;BME280;42885;49.754;18.636;2023-12-07T06:46:38;98451.98;;;1.30;91.69
56992;BME280;42885;49.754;18.636;2023-12-07T06:49:09;98450.55;;;1.16;91.38
56992;BME280;42885;49.754;18.636;2023-12-07T06:51:42;98453.89;;;1.20;91.70
56992;BME280;42885;49.754;18.636;2023-12-07T06:54:13;98445.70;;;0.99;92.66
56992;BME280;42885;49.754;18.636;2023-12-07T06:56:44;98453.44;;;1.22;92.33
56992;BME280;42885;49.754;18.636;2023-12-07T06:59:16;98454.77;;;1.19;92.11
56992;BME280;42885;49.754;18.636;2023-12-07T07:01:47;98455.81;;;1.10;92.05
56992;BME280;42885;49.754;18.636;2023-12-07T07:04:18;98455.03;;;1.05;91.70
56992;BME280;42885;49.754;18.636;2023-12-07T07:06:49;98452.69;;;1.15;92.05
56992;BME280;42885;49.754;18.636;2023-12-07T07:09:21;98458.58;;;0.99;93.43
56992;BME280;42885;49.754;18.636;2023-12-07T07:11:52;98460.28;;;1.00;93.99
56992;BME280;42885;49.754;18.636;2023-12-07T07:14:23;98467.53;;;1.02;94.84
56992;BME280;42885;49.754;18.636;2023-12-07T07:16:54;98469.03;;;1.14;94.75
56992;BME280;42885;49.754;18.636;2023-12-07T07:19:25;98470.63;;;1.21;94.46
56992;BME280;42885;49.754;18.636;2023-12-07T07:21:56;98470.25;;;1.40;93.84
56992;BME280;42885;49.754;18.636;2023-12-07T07:24:26;98472.89;;;1.39;93.26
56992;BME280;42885;49.754;18.636;2023-12-07T07:26:58;98477.56;;;1.41;91.69
56992;BME280;42885;49.754;18.636;2023-12-07T07:29:29;98472.20;;;1.29;92.37
56992;BME280;42885;49.754;18.636;2023-12-07T07:31:59;98472.73;;;1.23;92.80
56992;BME280;42885;49.754;18.636;2023-12-07T07:34:30;98481.73;;;1.48;92.96
56992;BME280;42885;49.754;18.636;2023-12-07T07:37:01;98480.91;;;1.67;91.08
56992;BME280;42885;49.754;18.636;2023-12-07T07:39:32;98475.90;;;1.59;90.85
56992;BME280;42885;49.754;18.636;2023-12-07T07:42:04;98484.45;;;1.61;91.17
56992;BME280;42885;49.754;18.636;2023-12-07T07:44:35;98491.09;;;1.52;92.33
56992;BME280;42885;49.754;18.636;2023-12-07T07:47:06;98486.52;;;1.44;92.95
56992;BME280;42885;49.754;18.636;2023-12-07T07:49:37;98494.03;;;1.56;93.14
56992;BME280;42885;49.754;18.636;2023-12-07T07:52:08;98485.74;;;4.03;100.00
56992;BME280;42885;49.754;18.636;2023-12-07T07:54:39;98487.56;;;3.06;91.94
56992;BME280;42885;49.754;18.636;2023-12-07T07:57:10;98485.39;;;2.56;88.96
56992;BME280;42885;49.754;18.636;2023-12-07T07:59:44;98490.35;;;3.32;87.03
56992;BME280;42885;49.754;18.636;2023-12-07T08:02:15;98494.31;;;2.24;82.71
56992;BME280;42885;49.754;18.636;2023-12-07T08:04:46;98498.28;;;1.80;84.68
56992;BME280;42885;49.754;18.636;2023-12-07T08:07:18;98496.83;;;1.86;84.91
56992;BME280;42885;49.754;18.636;2023-12-07T08:09:49;98493.02;;;1.85;84.24
56992;BME280;42885;49.754;18.636;2023-12-07T08:12:20;98495.09;;;2.08;84.91
56992;BME280;42885;49.754;18.636;2023-12-07T08:14:52;98497.77;;;2.03;85.66
56992;BME280;42885;49.754;18.636;2023-12-07T08:17:23;98504.31;;;2.18;84.53
56992;BME280;42885;49.754;18.636;2023-12-07T08:19:56;98506.55;;;2.16;85.21
56992;BME280;42885;49.754;18.636;2023-12-07T08:22:28;98507.06;;;2.12;85.41
56992;BME280;42885;49.754;18.636;2023-12-07T08:25:00;98501.73;;;2.38;85.04
56992;BME280;42885;49.754;18.636;2023-12-07T08:27:33;98507.52;;;1.90;85.56
56992;BME280;42885;49.754;18.636;2023-12-07T08:30:05;98506.12;;;2.15;85.95
56992;BME280;42885;49.754;18.636;2023-12-07T08:32:43;98512.67;;;2.10;85.31
56992;BME280;42885;49.754;18.636;2023-12-07T08:35:11;98518.12;;;1.98;86.22
56992;BME280;42885;49.754;18.636;2023-12-07T08:37:42;98526.27;;;2.18;86.23
56992;BME280;42885;49.754;18.636;2023-12-07T08:40:13;98527.73;;;2.11;85.93
56992;BME280;42885;49.754;18.636;2023-12-07T08:42:45;98531.03;;;1.98;86.30
56992;BME280;42885;49.754;18.636;2023-12-07T08:45:18;98525.86;;;2.17;85.86
56992;BME280;42885;49.754;18.636;2023-12-07T08:47:49;98533.35;;;2.30;83.63
56992;BME280;42885;49.754;18.636;2023-12-07T08:50:20;98534.70;;;2.46;83.16
56992;BME280;42885;49.754;18.636;2023-12-07T08:52:51;98542.05;;;2.45;83.80
56992;BME280;42885;49.754;18.636;2023-12-07T08:55:22;98538.84;;;2.54;82.21
56992;BME280;42885;49.754;18.636;2023-12-07T08:57:54;98546.22;;;2.51;81.92
56992;BME280;42885;49.754;18.636;2023-12-07T09:00:25;98551.32;;;2.72;81.12
56992;BME280;42885;49.754;18.636;2023-12-07T09:02:56;98555.02;;;2.62;82.10
56992;BME280;42885;49.754;18.636;2023-12-07T09:05:27;98552.93;;;2.77;81.84
56992;BME280;42885;49.754;18.636;2023-12-07T09:07:59;98546.33;;;2.83;80.11
56992;BME280;42885;49.754;18.636;2023-12-07T09:10:31;98546.47;;;2.95;79.71
56992;BME280;42885;49.754;18.636;2023-12-07T09:13:01;98544.87;;;2.91;79.28
56992;BME280;42885;49.754;18.636;2023-12-07T09:15:32;98546.73;;;2.84;78.72
56992;BME280;42885;49.754;18.636;2023-12-07T09:18:05;98541.50;;;2.87;79.08
56992;BME280;42885;49.754;18.636;2023-12-07T09:20:37;98550.98;;;3.05;77.62
56992;BME280;42885;49.754;18.636;2023-12-07T09:23:11;98552.18;;;3.08;77.71
56992;BME280;42885;49.754;18.636;2023-12-07T09:25:42;98551.38;;;3.06;76.66
56992;BME280;42885;49.754;18.636;2023-12-07T09:28:13;98545.86;;;2.67;77.59
56992;BME280;42885;49.754;18.636;2023-12-07T09:30:44;98552.37;;;2.64;80.83
56992;BME280;42885;49.754;18.636;2023-12-07T09:33:15;98553.56;;;2.68;80.74
56992;BME280;42885;49.754;18.636;2023-12-07T09:35:46;98550.68;;;2.63;81.11
56992;BME280;42885;49.754;18.636;2023-12-07T09:38:18;98543.83;;;2.80;80.99
56992;BME280;42885;49.754;18.636;2023-12-07T09:40:53;98552.79;;;2.83;80.13
56992;BME280;42885;49.754;18.636;2023-12-07T09:43:25;98549.05;;;2.95;79.06
56992;BME280;42885;49.754;18.636;2023-12-07T09:45:57;98546.19;;;3.24;77.22
56992;BME280;42885;49.754;18.636;2023-12-07T09:48:28;98545.17;;;3.29;77.71
56992;BME280;42885;49.754;18.636;2023-12-07T09:51:00;98543.69;;;3.19;76.52
56992;BME280;42885;49.754;18.636;2023-12-07T09:53:32;98542.58;;;3.13;77.21
56992;BME280;42885;49.754;18.636;2023-12-07T09:56:04;98544.43;;;3.41;76.47
56992;BME280;42885;49.754;18.636;2023-12-07T09:58:34;98538.02;;;4.58;76.13
56992;BME280;42885;49.754;18.636;2023-12-07T10:01:05;98538.19;;;3.80;74.76
56992;BME280;42885;49.754;18.636;2023-12-07T10:03:36;98539.40;;;3.51;74.07
56992;BME280;42885;49.754;18.636;2023-12-07T10:06:07;98539.21;;;3.59;75.17
56992;BME280;42885;49.754;18.636;2023-12-07T10:08:38;98542.83;;;3.20;75.41
56992;BME280;42885;49.754;18.636;2023-12-07T10:11:10;98532.87;;;3.54;75.85
56992;BME280;42885;49.754;18.636;2023-12-07T10:13:44;98530.58;;;3.90;75.50
56992;BME280;42885;49.754;18.636;2023-12-07T10:16:16;98536.58;;;3.44;73.96
56992;BME280;42885;49.754;18.636;2023-12-07T10:18:48;98535.76;;;3.90;75.43
56992;BME280;42885;49.754;18.636;2023-12-07T10:21:34;98538.15;;;3.66;73.73
56992;BME280;42885;49.754;18.636;2023-12-07T10:24:06;98541.55;;;3.52;75.48
56992;BME280;42885;49.754;18.636;2023-12-07T10:26:39;98536.41;;;3.50;75.40
56992;BME280;42885;49.754;18.636;2023-12-07T10:29:10;98532.71;;;3.76;74.02
56992;BME280;42885;49.754;18.636;2023-12-07T10:31:41;98526.53;;;3.80;73.62
56992;BME280;42885;49.754;18.636;2023-12-07T10:34:17;98533.55;;;3.44;71.69
56992;BME280;42885;49.754;18.636;2023-12-07T10:36:47;98529.95;;;3.97;73.04
56992;BME280;42885;49.754;18.636;2023-12-07T10:39:20;98527.47;;;3.77;72.40
56992;BME280;42885;49.754;18.636;2023-12-07T10:41:55;98531.28;;;3.65;72.72
56992;BME280;42885;49.754;18.636;2023-12-07T10:44:27;98524.85;;;4.09;72.07
56992;BME280;42885;49.754;18.636;2023-12-07T10:46:59;98520.20;;;4.62;69.34
56992;BME280;42885;49.754;18.636;2023-12-07T10:49:31;98520.53;;;4.51;69.36
56992;BME280;42885;49.754;18.636;2023-12-07T10:52:06;98528.48;;;4.03;69.38
56992;BME280;42885;49.754;18.636;2023-12-07T10:54:45;98524.03;;;4.22;70.74
56992;BME280;42885;49.754;18.636;2023-12-07T10:57:11;98522.42;;;5.00;70.76
56992;BME280;42885;49.754;18.636;2023-12-07T10:59:45;98523.75;;;4.31;70.33
56992;BME280;42885;49.754;18.636;2023-12-07T11:02:17;98527.08;;;4.06;70.68
56992;BME280;42885;49.754;18.636;2023-12-07T11:04:50;98534.57;;;3.85;72.50
56992;BME280;42885;49.754;18.636;2023-12-07T11:07:23;98529.55;;;3.96;71.80
56992;BME280;42885;49.754;18.636;2023-12-07T11:10:05;98526.99;;;3.94;72.47
56992;BME280;42885;49.754;18.636;2023-12-07T11:12:53;98528.48;;;4.03;72.39
56992;BME280;42885;49.754;18.636;2023-12-07T11:15:14;98529.23;;;4.07;72.81
56992;BME280;42885;49.754;18.636;2023-12-07T11:17:55;98523.05;;;3.81;73.17
56992;BME280;42885;49.754;18.636;2023-12-07T11:20:47;98524.31;;;3.82;73.72
56992;BME280;42885;49.754;18.636;2023-12-07T11:23:18;98521.98;;;3.88;74.22
56992;BME280;42885;49.754;18.636;2023-12-07T11:25:52;98525.16;;;3.98;74.13
56992;BME280;42885;49.754;18.636;2023-12-07T11:28:35;98520.17;;;4.07;72.55
56992;BME280;42885;49.754;18.636;2023-12-07T11:31:07;98519.39;;;4.18;71.58
56992;BME280;42885;49.754;18.636;2023-12-07T11:33:40;98529.34;;;4.02;70.50
56992;BME280;42885;49.754;18.636;2023-12-07T11:36:12;98522.84;;;3.89;71.48
56992;BME280;42885;49.754;18.636;2023-12-07T11:41:43;98530.73;;;4.43;70.49
56992;BME280;42885;49.754;18.636;2023-12-07T11:44:12;98530.12;;;4.34;70.00
56992;BME280;42885;49.754;18.636;2023-12-07T11:46:43;98533.17;;;4.19;71.53
56992;BME280;42885;49.754;18.636;2023-12-07T11:49:14;98525.68;;;4.09;71.33
56992;BME280;42885;49.754;18.636;2023-12-07T11:51:45;98522.19;;;4.10;70.56
56992;BME280;42885;49.754;18.636;2023-12-07T11:54:16;98522.87;;;4.17;71.25
56992;BME280;42885;49.754;18.636;2023-12-07T11:56:54;98526.59;;;4.23;71.33
56992;BME280;42885;49.754;18.636;2023-12-07T11:59:25;98520.09;;;3.95;71.92
56992;BME280;42885;49.754;18.636;2023-12-07T12:01:59;98520.09;;;3.95;70.93
56992;BME280;42885;49.754;18.636;2023-12-07T12:04:30;98525.75;;;4.08;71.17
56992;BME280;42885;49.754;18.636;2023-12-07T12:07:00;98523.78;;;3.86;73.16
56992;BME280;42885;49.754;18.636;2023-12-07T12:09:31;98526.44;;;3.68;74.36
56992;BME280;42885;49.754;18.636;2023-12-07T12:12:04;98527.27;;;3.70;74.08
56992;BME280;42885;49.754;18.636;2023-12-07T12:14:35;98520.63;;;3.91;73.89
56992;BME280;42885;49.754;18.636;2023-12-07T12:17:06;98524.59;;;4.03;73.76
56992;BME280;42885;49.754;18.636;2023-12-07T12:19:37;98520.16;;;3.92;73.73
56992;BME280;42885;49.754;18.636;2023-12-07T12:22:08;98513.98;;;4.11;73.07
56992;BME280;42885;49.754;18.636;2023-12-07T12:24:39;98518.56;;;3.88;73.63
56992;BME280;42885;49.754;18.636;2023-12-07T12:27:11;98526.10;;;3.80;74.32
56992;BME280;42885;49.754;18.636;2023-12-07T12:29:42;98528.13;;;3.69;73.92
56992;BME280;42885;49.754;18.636;2023-12-07T12:32:13;98526.14;;;3.79;75.24
56992;BME280;42885;49.754;18.636;2023-12-07T12:34:44;98519.36;;;3.90;74.41
56992;BME280;42885;49.754;18.636;2023-12-07T12:37:14;98526.86;;;3.84;74.60
56992;BME280;42885;49.754;18.636;2023-12-07T12:39:46;98516.27;;;3.92;74.38
56992;BME280;42885;49.754;18.636;2023-12-07T12:42:17;98525.47;;;3.72;75.02
56992;BME280;42885;49.754;18.636;2023-12-07T12:44:48;98526.00;;;3.83;75.13
56992;BME280;42885;49.754;18.636;2023-12-07T12:47:19;98506.69;;;3.80;74.41
56992;BME280;42885;49.754;18.636;2023-12-07T12:49:50;98524.51;;;3.91;74.57
56992;BME280;42885;49.754;18.636;2023-12-07T12:52:21;98537.31;;;3.96;74.11
56992;BME280;42885;49.754;18.636;2023-12-07T12:54:58;98536.66;;;3.72;75.73
56992;BME280;42885;49.754;18.636;2023-12-07T12:57:28;98527.79;;;3.96;74.58
56992;BME280;42885;49.754;18.636;2023-12-07T13:00:02;98538.65;;;3.79;75.34
56992;BME280;42885;49.754;18.636;2023-12-07T13:02:34;98544.02;;;3.56;76.17
56992;BME280;42885;49.754;18.636;2023-12-07T13:05:06;98539.78;;;3.69;75.52
56992;BME280;42885;49.754;18.636;2023-12-07T13:07:37;98542.30;;;3.57;76.96
56992;BME280;42885;49.754;18.636;2023-12-07T13:10:08;98538.25;;;3.93;75.86
56992;BME280;42885;49.754;18.636;2023-12-07T13:12:39;98537.13;;;3.87;75.73
56992;BME280;42885;49.754;18.636;2023-12-07T13:15:10;98539.91;;;3.64;76.13
56992;BME280;42885;49.754;18.636;2023-12-07T13:17:43;98534.32;;;3.48;76.83
56992;BME280;42885;49.754;18.636;2023-12-07T13:20:14;98536.17;;;3.43;77.60
56992;BME280;42885;49.754;18.636;2023-12-07T13:22:45;98538.91;;;3.70;77.14
56992;BME280;42885;49.754;18.636;2023-12-07T13:25:16;98535.19;;;3.49;77.74
56992;BME280;42885;49.754;18.636;2023-12-07T13:27:46;98540.41;;;3.62;77.57
56992;BME280;42885;49.754;18.636;2023-12-07T13:30:17;98545.95;;;3.65;77.56